sensor_id;sensor_type;location;lat;lon;timestamp;temperature;humidity
45066;DHT22;30830;53.704;10.004;2023-10-19T00:01:10;7.20;99.90
45066;DHT22;30830;53.704;10.004;2023-10-19T00:03:37;7.20;99.90
45066;DHT22;30830;53.704;10.004;2023-10-19T00:06:02;7.10;99.90
45066;DHT22;30830;53.704;10.004;2023-10-19T00:08:28;7.20;99.90
45066;DHT22;30830;53.704;10.004;2023-10-19T00:11:06;7.10;99.90
45066;DHT22;30830;53.704;10.004;2023-10-19T00:13:47;7.20;99.90
45066;DHT22;30830;53.704;10.004;2023-10-19T00:16:16;7.10;99.90
45066;DHT22;30830;53.704;10.004;2023-10-19T00:18:43;7.10;99.90
45066;DHT22;30830;53.704;10.004;2023-10-19T00:21:09;7.20;99.90
45066;DHT22;30830;53.704;10.004;2023-10-19T00:23:58;7.20;99.90
45066;DHT22;30830;53.704;10.004;2023-10-19T00:26:30;7.10;99.90
45066;DHT22;30830;53.704;10.004;2023-10-19T00:28:56;7.20;99.90
45066;DHT22;30830;53.704;10.004;2023-10-19T00:31:23;7.20;99.90
45066;DHT22;30830;53.704;10.004;2023-10-19T00:33:49;7.20;99.90
45066;DHT22;30830;53.704;10.004;2023-10-19T00:36:17;7.10;99.90
45066;DHT22;30830;53.704;10.004;2023-10-19T00:38:46;7.20;99.90
45066;DHT22;30830;53.704;10.004;2023-10-19T00:41:17;7.20;99.90
45066;DHT22;30830;53.704;10.004;2023-10-19T00:44:00;7.20;99.90
45066;DHT22;30830;53.704;10.004;2023-10-19T00:46:36;7.10;99.90
45066;DHT22;30830;53.704;10.004;2023-10-19T00:49:12;7.10;99.90
45066;DHT22;30830;53.704;10.004;2023-10-19T00:51:43;7.20;99.90
45066;DHT22;30830;53.704;10.004;2023-10-19T00:54:32;7.10;99.90
45066;DHT22;30830;53.704;10.004;2023-10-19T00:57:06;7.10;99.90
45066;DHT22;30830;53.704;10.004;2023-10-19T00:59:40;7.10;99.90
45066;DHT22;30830;53.704;10.004;2023-10-19T01:02:13;7.10;99.90
45066;DHT22;30830;53.704;10.004;2023-10-19T01:05:05;7.10;99.90
45066;DHT22;30830;53.704;10.004;2023-10-19T01:07:32;7.10;99.90
45066;DHT22;30830;53.704;10.004;2023-10-19T01:10:03;7.10;99.90
45066;DHT22;30830;53.704;10.004;2023-10-19T01:12:31;7.10;99.90
45066;DHT22;30830;53.704;10.004;2023-10-19T01:15:16;7.10;99.90
45066;DHT22;30830;53.704;10.004;2023-10-19T01:17:44;7.10;99.90
45066;DHT22;30830;53.704;10.004;2023-10-19T01:20:12;7.10;99.90
45066;DHT22;30830;53.704;10.004;2023-10-19T01:23:07;7.10;99.90
45066;DHT22;30830;53.704;10.004;2023-10-19T01:25:56;7.10;99.90
45066;DHT22;30830;53.704;10.004;2023-10-19T01:28:23;7.10;99.90
45066;DHT22;30830;53.704;10.004;2023-10-19T01:31:09;7.10;99.90
45066;DHT22;30830;53.704;10.004;2023-10-19T01:33:40;7.10;99.90
45066;DHT22;30830;53.704;10.004;2023-10-19T01:36:08;7.10;99.90
45066;DHT22;30830;53.704;10.004;2023-10-19T01:38:37;7.10;99.90
45066;DHT22;30830;53.704;10.004;2023-10-19T01:41:04;7.10;99.90
45066;DHT22;30830;53.704;10.004;2023-10-19T01:43:42;7.10;99.90
45066;DHT22;30830;53.704;10.004;2023-10-19T01:46:09;7.10;99.90
45066;DHT22;30830;53.704;10.004;2023-10-19T01:48:42;7.10;99.90
45066;DHT22;30830;53.704;10.004;2023-10-19T01:51:09;7.10;99.90
45066;DHT22;30830;53.704;10.004;2023-10-19T01:53:41;7.10;99.90
45066;DHT22;30830;53.704;10.004;2023-10-19T01:56:14;7.10;99.90
45066;DHT22;30830;53.704;10.004;2023-10-19T01:58:41;7.10;99.90
45066;DHT22;30830;53.704;10.004;2023-10-19T02:01:07;7.20;99.90
45066;DHT22;30830;53.704;10.004;2023-10-19T02:03:40;7.20;99.90
45066;DHT22;30830;53.704;10.004;2023-10-19T02:06:08;7.20;99.90
45066;DHT22;30830;53.704;10.004;2023-10-19T02:08:56;7.20;99.90
45066;DHT22;30830;53.704;10.004;2023-10-19T02:11:25;7.20;99.90
45066;DHT22;30830;53.704;10.004;2023-10-19T02:13:54;7.20;99.90
45066;DHT22;30830;53.704;10.004;2023-10-19T02:16:20;7.30;99.90
45066;DHT22;30830;53.704;10.004;2023-10-19T02:18:50;7.30;99.90
45066;DHT22;30830;53.704;10.004;2023-10-19T02:21:16;7.30;99.90
45066;DHT22;30830;53.704;10.004;2023-10-19T02:23:49;7.30;99.90
45066;DHT22;30830;53.704;10.004;2023-10-19T02:26:17;7.20;99.90
45066;DHT22;30830;53.704;10.004;2023-10-19T02:28:48;7.30;99.90
45066;DHT22;30830;53.704;10.004;2023-10-19T02:31:16;7.30;99.90
45066;DHT22;30830;53.704;10.004;2023-10-19T02:33:45;7.30;99.90
45066;DHT22;30830;53.704;10.004;2023-10-19T02:36:13;7.30;99.90
45066;DHT22;30830;53.704;10.004;2023-10-19T02:38:45;7.30;99.90
45066;DHT22;30830;53.704;10.004;2023-10-19T02:41:15;7.30;99.90
45066;DHT22;30830;53.704;10.004;2023-10-19T02:43:41;7.30;99.90
45066;DHT22;30830;53.704;10.004;2023-10-19T02:46:07;7.20;99.90
45066;DHT22;30830;53.704;10.004;2023-10-19T02:48:33;7.20;99.90
45066;DHT22;30830;53.704;10.004;2023-10-19T02:50:58;7.30;99.90
45066;DHT22;30830;53.704;10.004;2023-10-19T02:53:31;7.30;99.90
45066;DHT22;30830;53.704;10.004;2023-10-19T02:55:57;7.30;99.90
45066;DHT22;30830;53.704;10.004;2023-10-19T02:58:27;7.20;99.90
45066;DHT22;30830;53.704;10.004;2023-10-19T03:00:53;7.30;99.90
45066;DHT22;30830;53.704;10.004;2023-10-19T03:03:20;7.30;99.90
45066;DHT22;30830;53.704;10.004;2023-10-19T03:05:45;7.30;99.90
45066;DHT22;30830;53.704;10.004;2023-10-19T03:08:11;7.30;99.90
45066;DHT22;30830;53.704;10.004;2023-10-19T03:10:41;7.30;99.90
45066;DHT22;30830;53.704;10.004;2023-10-19T03:13:09;7.30;99.90
45066;DHT22;30830;53.704;10.004;2023-10-19T03:15:35;7.30;99.90
45066;DHT22;30830;53.704;10.004;2023-10-19T03:18:01;7.30;99.90
45066;DHT22;30830;53.704;10.004;2023-10-19T03:20:29;7.30;99.90
45066;DHT22;30830;53.704;10.004;2023-10-19T03:22:58;7.30;99.90
45066;DHT22;30830;53.704;10.004;2023-10-19T03:25:26;7.30;99.90
45066;DHT22;30830;53.704;10.004;2023-10-19T03:28:10;7.30;99.90
45066;DHT22;30830;53.704;10.004;2023-10-19T03:30:37;7.30;99.90
45066;DHT22;30830;53.704;10.004;2023-10-19T03:33:06;7.30;99.90
45066;DHT22;30830;53.704;10.004;2023-10-19T03:35:38;7.40;99.90
45066;DHT22;30830;53.704;10.004;2023-10-19T03:38:07;7.40;99.90
45066;DHT22;30830;53.704;10.004;2023-10-19T03:40:40;7.40;99.90
45066;DHT22;30830;53.704;10.004;2023-10-19T03:43:06;7.40;99.90
45066;DHT22;30830;53.704;10.004;2023-10-19T03:45:42;7.40;99.90
45066;DHT22;30830;53.704;10.004;2023-10-19T03:48:13;7.40;99.90
45066;DHT22;30830;53.704;10.004;2023-10-19T03:50:41;7.40;99.90
45066;DHT22;30830;53.704;10.004;2023-10-19T03:53:07;7.40;99.90
45066;DHT22;30830;53.704;10.004;2023-10-19T03:55:37;7.50;99.90
45066;DHT22;30830;53.704;10.004;2023-10-19T03:58:04;7.40;99.90
45066;DHT22;30830;53.704;10.004;2023-10-19T04:00:30;7.50;99.90
45066;DHT22;30830;53.704;10.004;2023-10-19T04:02:58;7.50;99.90
45066;DHT22;30830;53.704;10.004;2023-10-19T04:05:24;7.50;99.90
45066;DHT22;30830;53.704;10.004;2023-10-19T04:07:52;7.50;99.90
45066;DHT22;30830;53.704;10.004;2023-10-19T04:10:21;7.50;99.90
45066;DHT22;30830;53.704;10.004;2023-10-19T04:13:04;7.50;99.90
45066;DHT22;30830;53.704;10.004;2023-10-19T04:15:34;7.50;99.90
45066;DHT22;30830;53.704;10.004;2023-10-19T04:18:02;7.40;99.90
45066;DHT22;30830;53.704;10.004;2023-10-19T04:20:27;7.40;99.90
45066;DHT22;30830;53.704;10.004;2023-10-19T04:23:08;7.40;99.90
45066;DHT22;30830;53.704;10.004;2023-10-19T04:25:39;7.40;99.90
45066;DHT22;30830;53.704;10.004;2023-10-19T04:28:05;7.30;99.90
45066;DHT22;30830;53.704;10.004;2023-10-19T04:30:31;7.30;99.90
45066;DHT22;30830;53.704;10.004;2023-10-19T04:32:58;7.30;99.90
45066;DHT22;30830;53.704;10.004;2023-10-19T04:35:24;7.20;99.90
45066;DHT22;30830;53.704;10.004;2023-10-19T04:37:55;7.10;99.90
45066;DHT22;30830;53.704;10.004;2023-10-19T04:40:22;7.10;99.90
45066;DHT22;30830;53.704;10.004;2023-10-19T04:42:50;7.10;99.90
45066;DHT22;30830;53.704;10.004;2023-10-19T04:45:16;7.00;99.90
45066;DHT22;30830;53.704;10.004;2023-10-19T04:47:42;7.00;99.90
45066;DHT22;30830;53.704;10.004;2023-10-19T04:50:08;7.00;99.90
45066;DHT22;30830;53.704;10.004;2023-10-19T04:52:36;6.90;99.90
45066;DHT22;30830;53.704;10.004;2023-10-19T04:55:02;6.90;99.90
45066;DHT22;30830;53.704;10.004;2023-10-19T04:57:28;6.90;99.90
45066;DHT22;30830;53.704;10.004;2023-10-19T04:59:54;6.80;99.90
45066;DHT22;30830;53.704;10.004;2023-10-19T05:02:20;6.90;99.90
45066;DHT22;30830;53.704;10.004;2023-10-19T05:04:46;6.80;99.90
45066;DHT22;30830;53.704;10.004;2023-10-19T05:07:12;6.80;99.90
45066;DHT22;30830;53.704;10.004;2023-10-19T05:09:40;6.80;99.90
45066;DHT22;30830;53.704;10.004;2023-10-19T05:12:06;6.80;99.90
45066;DHT22;30830;53.704;10.004;2023-10-19T05:14:41;6.70;99.90
45066;DHT22;30830;53.704;10.004;2023-10-19T05:17:07;6.70;99.90
45066;DHT22;30830;53.704;10.004;2023-10-19T05:19:35;6.70;99.90
45066;DHT22;30830;53.704;10.004;2023-10-19T05:22:01;6.70;99.90
45066;DHT22;30830;53.704;10.004;2023-10-19T05:24:28;6.70;99.90
45066;DHT22;30830;53.704;10.004;2023-10-19T05:26:54;6.70;99.90
45066;DHT22;30830;53.704;10.004;2023-10-19T05:29:20;6.60;99.90
45066;DHT22;30830;53.704;10.004;2023-10-19T05:31:46;6.60;99.90
45066;DHT22;30830;53.704;10.004;2023-10-19T05:34:11;6.60;99.90
45066;DHT22;30830;53.704;10.004;2023-10-19T05:36:37;6.60;99.90
45066;DHT22;30830;53.704;10.004;2023-10-19T05:39:04;6.60;99.90
45066;DHT22;30830;53.704;10.004;2023-10-19T05:41:33;6.60;99.90
45066;DHT22;30830;53.704;10.004;2023-10-19T05:43:59;6.60;99.90
45066;DHT22;30830;53.704;10.004;2023-10-19T05:46:25;6.60;99.90
45066;DHT22;30830;53.704;10.004;2023-10-19T05:48:51;6.50;99.90
45066;DHT22;30830;53.704;10.004;2023-10-19T05:51:19;6.50;99.90
45066;DHT22;30830;53.704;10.004;2023-10-19T05:53:44;6.60;99.90
45066;DHT22;30830;53.704;10.004;2023-10-19T05:56:10;6.50;99.90
45066;DHT22;30830;53.704;10.004;2023-10-19T05:58:36;6.50;99.90
45066;DHT22;30830;53.704;10.004;2023-10-19T06:01:02;6.50;99.90
45066;DHT22;30830;53.704;10.004;2023-10-19T06:03:28;6.50;99.90
45066;DHT22;30830;53.704;10.004;2023-10-19T06:05:54;6.50;99.90
45066;DHT22;30830;53.704;10.004;2023-10-19T06:08:22;6.50;99.90
45066;DHT22;30830;53.704;10.004;2023-10-19T06:10:52;6.50;99.90
45066;DHT22;30830;53.704;10.004;2023-10-19T06:13:18;6.50;99.90
45066;DHT22;30830;53.704;10.004;2023-10-19T06:15:43;6.50;99.90
45066;DHT22;30830;53.704;10.004;2023-10-19T06:18:09;6.50;99.90
45066;DHT22;30830;53.704;10.004;2023-10-19T06:20:36;6.50;99.90
45066;DHT22;30830;53.704;10.004;2023-10-19T06:23:02;6.50;99.90
45066;DHT22;30830;53.704;10.004;2023-10-19T06:25:32;6.50;99.90
45066;DHT22;30830;53.704;10.004;2023-10-19T06:28:00;6.50;99.90
45066;DHT22;30830;53.704;10.004;2023-10-19T06:30:27;6.50;99.90
45066;DHT22;30830;53.704;10.004;2023-10-19T06:32:57;6.50;99.90
45066;DHT22;30830;53.704;10.004;2023-10-19T06:35:27;6.50;99.90
45066;DHT22;30830;53.704;10.004;2023-10-19T06:37:54;6.50;99.90
45066;DHT22;30830;53.704;10.004;2023-10-19T06:40:23;6.50;99.90
45066;DHT22;30830;53.704;10.004;2023-10-19T06:42:49;6.50;99.90
45066;DHT22;30830;53.704;10.004;2023-10-19T06:45:17;6.50;99.90
45066;DHT22;30830;53.704;10.004;2023-10-19T06:47:45;6.50;99.90
45066;DHT22;30830;53.704;10.004;2023-10-19T06:50:13;6.50;99.90
45066;DHT22;30830;53.704;10.004;2023-10-19T06:52:41;6.50;99.90
45066;DHT22;30830;53.704;10.004;2023-10-19T06:55:09;6.50;99.90
45066;DHT22;30830;53.704;10.004;2023-10-19T06:57:48;6.50;99.90
45066;DHT22;30830;53.704;10.004;2023-10-19T07:00:18;6.50;99.90
45066;DHT22;30830;53.704;10.004;2023-10-19T07:02:50;6.50;99.90
45066;DHT22;30830;53.704;10.004;2023-10-19T07:05:17;6.50;99.90
45066;DHT22;30830;53.704;10.004;2023-10-19T07:07:55;6.50;99.90
45066;DHT22;30830;53.704;10.004;2023-10-19T07:10:22;6.60;99.90
45066;DHT22;30830;53.704;10.004;2023-10-19T07:12:51;6.50;99.90
45066;DHT22;30830;53.704;10.004;2023-10-19T07:15:17;6.50;99.90
45066;DHT22;30830;53.704;10.004;2023-10-19T07:17:48;6.60;99.90
45066;DHT22;30830;53.704;10.004;2023-10-19T07:20:15;6.50;99.90
45066;DHT22;30830;53.704;10.004;2023-10-19T07:23:01;6.50;99.90
45066;DHT22;30830;53.704;10.004;2023-10-19T07:25:44;6.50;99.90
45066;DHT22;30830;53.704;10.004;2023-10-19T07:28:11;6.50;99.90
45066;DHT22;30830;53.704;10.004;2023-10-19T07:30:38;6.50;99.90
45066;DHT22;30830;53.704;10.004;2023-10-19T07:33:04;6.50;99.90
45066;DHT22;30830;53.704;10.004;2023-10-19T07:35:34;6.50;99.90
45066;DHT22;30830;53.704;10.004;2023-10-19T07:38:00;6.50;99.90
45066;DHT22;30830;53.704;10.004;2023-10-19T07:40:26;6.50;99.90
45066;DHT22;30830;53.704;10.004;2023-10-19T07:42:53;6.50;99.90
45066;DHT22;30830;53.704;10.004;2023-10-19T07:45:19;6.50;99.90
45066;DHT22;30830;53.704;10.004;2023-10-19T07:47:45;6.50;99.90
45066;DHT22;30830;53.704;10.004;2023-10-19T07:50:12;6.50;99.90
45066;DHT22;30830;53.704;10.004;2023-10-19T07:52:42;6.50;99.90
45066;DHT22;30830;53.704;10.004;2023-10-19T07:55:09;6.50;99.90
45066;DHT22;30830;53.704;10.004;2023-10-19T07:57:35;6.50;99.90
45066;DHT22;30830;53.704;10.004;2023-10-19T08:00:01;6.50;99.90
45066;DHT22;30830;53.704;10.004;2023-10-19T08:02:26;6.60;99.90
45066;DHT22;30830;53.704;10.004;2023-10-19T08:04:53;6.60;99.90
45066;DHT22;30830;53.704;10.004;2023-10-19T08:07:19;6.60;99.90
45066;DHT22;30830;53.704;10.004;2023-10-19T08:09:44;6.60;99.90
45066;DHT22;30830;53.704;10.004;2023-10-19T08:12:10;6.60;99.90
45066;DHT22;30830;53.704;10.004;2023-10-19T08:14:39;6.60;99.90
45066;DHT22;30830;53.704;10.004;2023-10-19T08:17:04;6.60;99.90
45066;DHT22;30830;53.704;10.004;2023-10-19T08:19:30;6.60;99.90
45066;DHT22;30830;53.704;10.004;2023-10-19T08:21:56;6.60;99.90
45066;DHT22;30830;53.704;10.004;2023-10-19T08:24:23;6.60;99.90
45066;DHT22;30830;53.704;10.004;2023-10-19T08:26:49;6.60;99.90
45066;DHT22;30830;53.704;10.004;2023-10-19T08:29:16;6.60;99.90
45066;DHT22;30830;53.704;10.004;2023-10-19T08:31:42;6.60;99.90
45066;DHT22;30830;53.704;10.004;2023-10-19T08:34:10;6.60;99.90
45066;DHT22;30830;53.704;10.004;2023-10-19T08:36:37;6.60;99.90
45066;DHT22;30830;53.704;10.004;2023-10-19T08:39:07;6.70;99.90
45066;DHT22;30830;53.704;10.004;2023-10-19T08:41:34;6.70;99.90
45066;DHT22;30830;53.704;10.004;2023-10-19T08:44:04;6.70;99.90
45066;DHT22;30830;53.704;10.004;2023-10-19T08:46:37;6.60;99.90
45066;DHT22;30830;53.704;10.004;2023-10-19T08:49:05;6.70;99.90
45066;DHT22;30830;53.704;10.004;2023-10-19T08:51:35;6.60;99.90
45066;DHT22;30830;53.704;10.004;2023-10-19T08:54:01;6.60;99.90
45066;DHT22;30830;53.704;10.004;2023-10-19T08:56:27;6.70;99.90
45066;DHT22;30830;53.704;10.004;2023-10-19T08:58:53;6.70;99.90
45066;DHT22;30830;53.704;10.004;2023-10-19T09:01:19;6.60;99.90
45066;DHT22;30830;53.704;10.004;2023-10-19T09:03:45;6.60;99.90
45066;DHT22;30830;53.704;10.004;2023-10-19T09:06:12;6.60;99.90
45066;DHT22;30830;53.704;10.004;2023-10-19T09:08:39;6.60;99.90
45066;DHT22;30830;53.704;10.004;2023-10-19T09:11:09;6.60;99.90
45066;DHT22;30830;53.704;10.004;2023-10-19T09:13:51;6.60;99.90
45066;DHT22;30830;53.704;10.004;2023-10-19T09:16:22;6.60;99.90
45066;DHT22;30830;53.704;10.004;2023-10-19T09:18:48;6.60;99.90
45066;DHT22;30830;53.704;10.004;2023-10-19T09:21:18;6.60;99.90
45066;DHT22;30830;53.704;10.004;2023-10-19T09:23:55;6.60;99.90
45066;DHT22;30830;53.704;10.004;2023-10-19T09:26:21;6.60;99.90
45066;DHT22;30830;53.704;10.004;2023-10-19T09:28:52;6.60;99.90
45066;DHT22;30830;53.704;10.004;2023-10-19T09:31:19;6.60;99.90
45066;DHT22;30830;53.704;10.004;2023-10-19T09:33:47;6.60;99.90
45066;DHT22;30830;53.704;10.004;2023-10-19T09:36:14;6.60;99.90
45066;DHT22;30830;53.704;10.004;2023-10-19T09:38:50;6.60;99.90
45066;DHT22;30830;53.704;10.004;2023-10-19T09:41:21;6.60;99.90
45066;DHT22;30830;53.704;10.004;2023-10-19T09:43:50;6.60;99.90
45066;DHT22;30830;53.704;10.004;2023-10-19T09:46:27;6.60;99.90
45066;DHT22;30830;53.704;10.004;2023-10-19T09:48:55;6.60;99.90
45066;DHT22;30830;53.704;10.004;2023-10-19T09:51:21;6.60;99.90
45066;DHT22;30830;53.704;10.004;2023-10-19T09:54:01;6.60;99.90
45066;DHT22;30830;53.704;10.004;2023-10-19T09:56:40;6.60;99.90
45066;DHT22;30830;53.704;10.004;2023-10-19T09:59:13;6.60;99.90
45066;DHT22;30830;53.704;10.004;2023-10-19T10:02:04;6.60;99.90
45066;DHT22;30830;53.704;10.004;2023-10-19T10:04:31;6.60;99.90
45066;DHT22;30830;53.704;10.004;2023-10-19T10:06:57;6.60;99.90
45066;DHT22;30830;53.704;10.004;2023-10-19T10:09:26;6.60;99.90
45066;DHT22;30830;53.704;10.004;2023-10-19T10:11:54;6.60;99.90
45066;DHT22;30830;53.704;10.004;2023-10-19T10:14:24;6.60;99.90
45066;DHT22;30830;53.704;10.004;2023-10-19T10:17:02;6.70;99.90
45066;DHT22;30830;53.704;10.004;2023-10-19T10:19:28;6.70;99.90
45066;DHT22;30830;53.704;10.004;2023-10-19T10:22:07;6.70;99.90
45066;DHT22;30830;53.704;10.004;2023-10-19T10:24:43;6.80;99.90
45066;DHT22;30830;53.704;10.004;2023-10-19T10:27:09;6.80;99.90
45066;DHT22;30830;53.704;10.004;2023-10-19T10:29:35;6.80;99.90
45066;DHT22;30830;53.704;10.004;2023-10-19T10:32:01;6.80;99.90
45066;DHT22;30830;53.704;10.004;2023-10-19T10:37:08;6.80;99.90
45066;DHT22;30830;53.704;10.004;2023-10-19T10:39:35;6.80;99.90
45066;DHT22;30830;53.704;10.004;2023-10-19T10:42:10;6.90;99.90
45066;DHT22;30830;53.704;10.004;2023-10-19T10:44:43;6.90;99.90
45066;DHT22;30830;53.704;10.004;2023-10-19T10:47:11;6.90;99.90
45066;DHT22;30830;53.704;10.004;2023-10-19T10:49:52;6.90;99.90
45066;DHT22;30830;53.704;10.004;2023-10-19T10:52:29;6.90;99.90
45066;DHT22;30830;53.704;10.004;2023-10-19T10:54:56;6.90;99.90
45066;DHT22;30830;53.704;10.004;2023-10-19T10:57:22;6.90;99.90
45066;DHT22;30830;53.704;10.004;2023-10-19T11:00:01;6.90;99.90
45066;DHT22;30830;53.704;10.004;2023-10-19T11:02:29;6.90;99.90
45066;DHT22;30830;53.704;10.004;2023-10-19T11:04:54;6.90;99.90
45066;DHT22;30830;53.704;10.004;2023-10-19T11:07:20;6.90;99.90
45066;DHT22;30830;53.704;10.004;2023-10-19T11:09:46;6.90;99.90
45066;DHT22;30830;53.704;10.004;2023-10-19T11:12:13;6.90;99.90
45066;DHT22;30830;53.704;10.004;2023-10-19T11:14:55;6.90;99.90
45066;DHT22;30830;53.704;10.004;2023-10-19T11:17:23;6.90;99.90
45066;DHT22;30830;53.704;10.004;2023-10-19T11:19:56;6.90;99.90
45066;DHT22;30830;53.704;10.004;2023-10-19T11:22:23;6.90;99.90
45066;DHT22;30830;53.704;10.004;2023-10-19T11:24:55;6.90;99.90
45066;DHT22;30830;53.704;10.004;2023-10-19T11:27:25;6.90;99.90
45066;DHT22;30830;53.704;10.004;2023-10-19T11:29:58;6.90;99.90
45066;DHT22;30830;53.704;10.004;2023-10-19T11:32:25;6.90;99.90
45066;DHT22;30830;53.704;10.004;2023-10-19T11:34:54;6.90;99.90
45066;DHT22;30830;53.704;10.004;2023-10-19T11:37:20;6.90;99.90
45066;DHT22;30830;53.704;10.004;2023-10-19T11:39:46;6.90;99.90
45066;DHT22;30830;53.704;10.004;2023-10-19T11:42:12;6.90;99.90
45066;DHT22;30830;53.704;10.004;2023-10-19T11:44:38;6.90;99.90
45066;DHT22;30830;53.704;10.004;2023-10-19T11:47:03;6.90;99.90
45066;DHT22;30830;53.704;10.004;2023-10-19T11:49:29;7.00;99.90
45066;DHT22;30830;53.704;10.004;2023-10-19T11:51:54;7.00;99.90
45066;DHT22;30830;53.704;10.004;2023-10-19T11:54:20;7.00;99.90
45066;DHT22;30830;53.704;10.004;2023-10-19T11:56:46;7.00;99.90
45066;DHT22;30830;53.704;10.004;2023-10-19T11:59:11;7.00;99.90
45066;DHT22;30830;53.704;10.004;2023-10-19T12:01:38;7.00;99.90
45066;DHT22;30830;53.704;10.004;2023-10-19T12:04:04;7.00;99.90
45066;DHT22;30830;53.704;10.004;2023-10-19T12:06:31;7.00;99.90
45066;DHT22;30830;53.704;10.004;2023-10-19T12:08:56;6.90;99.90
45066;DHT22;30830;53.704;10.004;2023-10-19T12:11:28;7.00;99.90
45066;DHT22;30830;53.704;10.004;2023-10-19T12:13:53;7.00;99.90
45066;DHT22;30830;53.704;10.004;2023-10-19T12:16:19;7.00;99.90
45066;DHT22;30830;53.704;10.004;2023-10-19T12:18:47;7.00;99.90
45066;DHT22;30830;53.704;10.004;2023-10-19T12:21:14;7.00;99.90
45066;DHT22;30830;53.704;10.004;2023-10-19T12:23:43;7.00;99.90
45066;DHT22;30830;53.704;10.004;2023-10-19T12:26:09;7.00;99.90
45066;DHT22;30830;53.704;10.004;2023-10-19T12:28:38;7.00;99.90
45066;DHT22;30830;53.704;10.004;2023-10-19T12:31:04;7.00;99.90
45066;DHT22;30830;53.704;10.004;2023-10-19T12:33:36;7.00;99.90
45066;DHT22;30830;53.704;10.004;2023-10-19T12:36:04;7.10;99.90
45066;DHT22;30830;53.704;10.004;2023-10-19T12:38:50;7.10;99.90
45066;DHT22;30830;53.704;10.004;2023-10-19T12:41:16;7.10;99.90
45066;DHT22;30830;53.704;10.004;2023-10-19T12:43:43;7.10;99.90
45066;DHT22;30830;53.704;10.004;2023-10-19T12:46:08;7.10;99.90
45066;DHT22;30830;53.704;10.004;2023-10-19T12:48:34;7.20;99.90
45066;DHT22;30830;53.704;10.004;2023-10-19T12:51:01;7.20;99.90
45066;DHT22;30830;53.704;10.004;2023-10-19T12:53:27;7.20;99.90
45066;DHT22;30830;53.704;10.004;2023-10-19T12:55:53;7.20;99.90
45066;DHT22;30830;53.704;10.004;2023-10-19T12:58:18;7.20;99.90
45066;DHT22;30830;53.704;10.004;2023-10-19T13:00:47;7.20;99.90
45066;DHT22;30830;53.704;10.004;2023-10-19T13:03:14;7.20;99.90
45066;DHT22;30830;53.704;10.004;2023-10-19T13:05:42;7.20;99.90
45066;DHT22;30830;53.704;10.004;2023-10-19T13:08:11;7.20;99.90
45066;DHT22;30830;53.704;10.004;2023-10-19T13:10:41;7.20;99.90
45066;DHT22;30830;53.704;10.004;2023-10-19T13:13:09;7.20;99.90
45066;DHT22;30830;53.704;10.004;2023-10-19T13:15:42;7.20;99.90
45066;DHT22;30830;53.704;10.004;2023-10-19T13:18:10;7.30;99.90
45066;DHT22;30830;53.704;10.004;2023-10-19T13:20:37;7.30;99.90
45066;DHT22;30830;53.704;10.004;2023-10-19T13:23:06;7.20;99.90
45066;DHT22;30830;53.704;10.004;2023-10-19T13:25:38;7.30;99.90
45066;DHT22;30830;53.704;10.004;2023-10-19T13:28:06;7.30;99.90
45066;DHT22;30830;53.704;10.004;2023-10-19T13:30:36;7.20;99.90
45066;DHT22;30830;53.704;10.004;2023-10-19T13:33:07;7.30;99.90
45066;DHT22;30830;53.704;10.004;2023-10-19T13:35:39;7.30;99.90
45066;DHT22;30830;53.704;10.004;2023-10-19T13:38:06;7.30;99.90
45066;DHT22;30830;53.704;10.004;2023-10-19T13:40:32;7.30;99.90
45066;DHT22;30830;53.704;10.004;2023-10-19T13:42:58;7.30;99.90
45066;DHT22;30830;53.704;10.004;2023-10-19T13:45:24;7.30;99.90
45066;DHT22;30830;53.704;10.004;2023-10-19T13:47:50;7.30;99.90
45066;DHT22;30830;53.704;10.004;2023-10-19T13:50:22;7.30;99.90
45066;DHT22;30830;53.704;10.004;2023-10-19T13:52:53;7.30;99.90
45066;DHT22;30830;53.704;10.004;2023-10-19T13:55:19;7.30;99.90
45066;DHT22;30830;53.704;10.004;2023-10-19T13:57:46;7.30;99.90
45066;DHT22;30830;53.704;10.004;2023-10-19T14:00:13;7.30;99.90
45066;DHT22;30830;53.704;10.004;2023-10-19T14:02:45;7.40;99.90
45066;DHT22;30830;53.704;10.004;2023-10-19T14:05:12;7.40;99.90
45066;DHT22;30830;53.704;10.004;2023-10-19T14:07:38;7.40;99.90
45066;DHT22;30830;53.704;10.004;2023-10-19T14:10:06;7.40;99.90
45066;DHT22;30830;53.704;10.004;2023-10-19T14:12:32;7.40;99.90
45066;DHT22;30830;53.704;10.004;2023-10-19T14:14:58;7.40;99.90
45066;DHT22;30830;53.704;10.004;2023-10-19T14:17:24;7.40;99.90
45066;DHT22;30830;53.704;10.004;2023-10-19T14:19:50;7.40;99.90
45066;DHT22;30830;53.704;10.004;2023-10-19T14:22:16;7.40;99.90
45066;DHT22;30830;53.704;10.004;2023-10-19T14:24:43;7.40;99.90
45066;DHT22;30830;53.704;10.004;2023-10-19T14:27:08;7.40;99.90
45066;DHT22;30830;53.704;10.004;2023-10-19T14:29:34;7.40;99.90
45066;DHT22;30830;53.704;10.004;2023-10-19T14:32:00;7.40;99.90
45066;DHT22;30830;53.704;10.004;2023-10-19T14:34:25;7.40;99.90
45066;DHT22;30830;53.704;10.004;2023-10-19T14:36:54;7.50;99.90
45066;DHT22;30830;53.704;10.004;2023-10-19T14:39:20;7.40;99.90
45066;DHT22;30830;53.704;10.004;2023-10-19T14:41:46;7.40;99.90
45066;DHT22;30830;53.704;10.004;2023-10-19T14:44:11;7.50;99.90
45066;DHT22;30830;53.704;10.004;2023-10-19T14:46:37;7.50;99.90
45066;DHT22;30830;53.704;10.004;2023-10-19T14:49:02;7.50;99.90
45066;DHT22;30830;53.704;10.004;2023-10-19T14:51:28;7.50;99.90
45066;DHT22;30830;53.704;10.004;2023-10-19T14:53:54;7.40;99.90
45066;DHT22;30830;53.704;10.004;2023-10-19T14:56:20;7.40;99.90
45066;DHT22;30830;53.704;10.004;2023-10-19T14:58:46;7.40;99.90
45066;DHT22;30830;53.704;10.004;2023-10-19T15:01:12;7.40;99.90
45066;DHT22;30830;53.704;10.004;2023-10-19T15:03:42;7.40;99.90
45066;DHT22;30830;53.704;10.004;2023-10-19T15:06:08;7.40;99.90
45066;DHT22;30830;53.704;10.004;2023-10-19T15:08:33;7.40;99.90
45066;DHT22;30830;53.704;10.004;2023-10-19T15:10:59;7.40;99.90
45066;DHT22;30830;53.704;10.004;2023-10-19T15:13:25;7.40;99.90
45066;DHT22;30830;53.704;10.004;2023-10-19T15:15:51;7.50;99.90
45066;DHT22;30830;53.704;10.004;2023-10-19T15:18:17;7.40;99.90
45066;DHT22;30830;53.704;10.004;2023-10-19T15:20:43;7.40;99.90
45066;DHT22;30830;53.704;10.004;2023-10-19T15:23:09;7.40;99.90
45066;DHT22;30830;53.704;10.004;2023-10-19T15:25:36;7.40;99.90
45066;DHT22;30830;53.704;10.004;2023-10-19T15:28:02;7.40;99.90
45066;DHT22;30830;53.704;10.004;2023-10-19T15:30:28;7.40;99.90
45066;DHT22;30830;53.704;10.004;2023-10-19T15:32:54;7.40;99.90
45066;DHT22;30830;53.704;10.004;2023-10-19T15:35:20;7.40;99.90
45066;DHT22;30830;53.704;10.004;2023-10-19T15:37:47;7.40;99.90
45066;DHT22;30830;53.704;10.004;2023-10-19T15:40:14;7.40;99.90
45066;DHT22;30830;53.704;10.004;2023-10-19T15:42:40;7.50;99.90